Aérodrome :
LOGIN :

S'inscrire | Disclaimer

   EN    FR    IT 

 










Légende :    VFR   VFR Marginal   IFR   IFR Intensif   IFR Très Intensif
Visi : 
Plafond : 
>= 8 km
>= 3000ft
5 à 8 km
1000 à 3000 ft
1500m à 5 km
500 à 1000 ft
800 à 1500m
200 à 500 ft
< 800m
< 200 ft
Symboles :   Orages  Brouillard  Fortes neiges  Fortes précipitations  Vent > 20 kt
SIGMETs :   Divers  Orages  Givrage  Turbulence  Onde Orograph.  Cendres Volcan.







- Altitude de l'aérodrome : 83 ft
- Code IATA : LHR
- Voir les cartes d'approche


EGLL - London Heathrow

DERNIER METAR :
  • 181520Z AUTO 16014KT 9999 -RA BKN038 09/06 Q1005 TEMPO RA

METARs EXPIRÉS :
  • 181450Z AUTO 16016KT 9999 -RA SCT043 BKN049 10/06 Q1005 TEMPO RA
  • 181420Z 17016KT 9999 -RA FEW020 10/06 Q1006 TEMPO RA
  • 181350Z 16017KT 9999 FEW025 10/06 Q1006 TEMPO RA
  • 181320Z AUTO 16016KT 9999 NCD 10/06 Q1006
  • 181250Z AUTO 16019G29KT 9999 NCD 10/06 Q1007 NOSIG

TAF TAF EGLL
Valide du 18 à 12h jusqu'au 19 à 18h UTC


181102Z 1812/1918 17015KT 9999 BKN018
TEMPO 1812/1821 16018G28KT
PROB30
TEMPO 1812/1815 8000 -RA
TEMPO 1815/1822 6000 RA BKN012
PROB30
TEMPO 1817/1822 3500 +RA BKN008
BECMG 1820/1823 23008KT
TEMPO 1900/1909 7000 SHRA
PROB30
TEMPO 1903/1909 4000 +SHRA BKN014CB
PROB40
TEMPO 1914/1918 7000 SHRA
Pas de NOTAMs connus pour ce terrain.
2 SIGMETs publiés pour la FIR London (EGTT) :
 
Onde orographique forte
EGTT SIGMET 08 VALID 181500/181900 EGRR
EGTT LONDON FIR SEV MTW FCST WI N5220 W00530 - N5500 W00530 - N5500 W00015 - N5024 W00255 - N4959 W00548 - N5220 W00530 FL030/250 STNR WKN=
Turbulence forte
EGTT SIGMET 06 VALID 181100/181500 EGRR
EGTT LONDON FIR SEV TURB FCST WI N5000 W00200 - N4919 W00530 - N5500 W00530 - N5500 E00100 - N5000 W00017 - N5000 W00200 SFC/FL060 MOV E 10KT WKN=



MET'MAP, la Météo Aéronautique d'un coup d'oeil ! - Copyright ORBIFLY Décembre 2007 - Disclaimer

ORBIFLY MET'MAP TEAM :

Programmation & Développement : Alexandra Zaïnal
Conception & Développement : Baudouin d'Aumeries
Co-Programmation & Développement : Marc-Olivier Méhu
Soutien technique & logistique : Manuel Goepfert

Contact : metmap@orbifly.com




SOURCES & CREDITS :

   NOAA